sensor_id;sensor_type;location;lat;lon;timestamp;P1;durP1;ratioP1;P2;durP2;ratioP2
572;SDS011;271;51.114;13.780;2022-11-30T00:01:10;34.75;;;17.15;;
572;SDS011;271;51.114;13.780;2022-11-30T00:03:38;38.20;;;18.95;;
572;SDS011;271;51.114;13.780;2022-11-30T00:06:08;39.45;;;18.75;;
572;SDS011;271;51.114;13.780;2022-11-30T00:08:36;37.30;;;17.92;;
572;SDS011;271;51.114;13.780;2022-11-30T00:11:07;34.72;;;16.60;;
572;SDS011;271;51.114;13.780;2022-11-30T00:13:35;39.30;;;18.48;;
572;SDS011;271;51.114;13.780;2022-11-30T00:16:03;37.38;;;17.48;;
572;SDS011;271;51.114;13.780;2022-11-30T00:18:31;37.65;;;17.00;;
572;SDS011;271;51.114;13.780;2022-11-30T00:20:59;35.58;;;17.20;;
572;SDS011;271;51.114;13.780;2022-11-30T00:23:31;42.58;;;19.23;;
572;SDS011;271;51.114;13.780;2022-11-30T00:26:00;35.03;;;17.70;;
572;SDS011;271;51.114;13.780;2022-11-30T00:28:27;38.17;;;17.40;;
572;SDS011;271;51.114;13.780;2022-11-30T00:30:56;39.05;;;18.88;;
572;SDS011;271;51.114;13.780;2022-11-30T00:33:24;37.60;;;17.73;;
572;SDS011;271;51.114;13.780;2022-11-30T00:35:55;35.53;;;16.50;;
572;SDS011;271;51.114;13.780;2022-11-30T00:38:23;34.42;;;16.80;;
572;SDS011;271;51.114;13.780;2022-11-30T00:40:52;36.63;;;17.83;;
572;SDS011;271;51.114;13.780;2022-11-30T00:43:21;35.95;;;18.38;;
572;SDS011;271;51.114;13.780;2022-11-30T00:45:48;37.85;;;18.42;;
572;SDS011;271;51.114;13.780;2022-11-30T00:48:16;33.25;;;16.70;;
572;SDS011;271;51.114;13.780;2022-11-30T00:50:43;35.00;;;16.98;;
572;SDS011;271;51.114;13.780;2022-11-30T00:53:10;34.88;;;16.30;;
572;SDS011;271;51.114;13.780;2022-11-30T00:55:38;36.90;;;17.92;;
572;SDS011;271;51.114;13.780;2022-11-30T00:58:06;34.97;;;16.60;;
572;SDS011;271;51.114;13.780;2022-11-30T01:00:34;34.33;;;16.02;;
572;SDS011;271;51.114;13.780;2022-11-30T01:03:01;34.03;;;16.10;;
572;SDS011;271;51.114;13.780;2022-11-30T01:05:31;35.40;;;15.27;;
572;SDS011;271;51.114;13.780;2022-11-30T01:07:58;36.30;;;16.85;;
572;SDS011;271;51.114;13.780;2022-11-30T01:10:26;33.85;;;16.10;;
572;SDS011;271;51.114;13.780;2022-11-30T01:12:54;35.67;;;18.13;;
572;SDS011;271;51.114;13.780;2022-11-30T01:15:23;35.78;;;16.45;;
572;SDS011;271;51.114;13.780;2022-11-30T01:17:50;35.45;;;17.83;;
572;SDS011;271;51.114;13.780;2022-11-30T01:20:17;31.77;;;15.77;;
572;SDS011;271;51.114;13.780;2022-11-30T01:22:45;33.72;;;16.85;;
572;SDS011;271;51.114;13.780;2022-11-30T01:25:13;36.50;;;16.48;;
572;SDS011;271;51.114;13.780;2022-11-30T01:27:40;36.25;;;16.52;;
572;SDS011;271;51.114;13.780;2022-11-30T01:30:08;34.55;;;16.98;;
572;SDS011;271;51.114;13.780;2022-11-30T01:32:37;35.78;;;16.15;;
572;SDS011;271;51.114;13.780;2022-11-30T01:35:05;36.85;;;18.30;;
572;SDS011;271;51.114;13.780;2022-11-30T01:37:34;34.80;;;16.95;;
572;SDS011;271;51.114;13.780;2022-11-30T01:40:02;33.63;;;15.38;;
572;SDS011;271;51.114;13.780;2022-11-30T01:42:29;35.30;;;16.17;;
572;SDS011;271;51.114;13.780;2022-11-30T01:44:58;37.67;;;17.70;;
572;SDS011;271;51.114;13.780;2022-11-30T01:47:27;34.80;;;17.35;;
572;SDS011;271;51.114;13.780;2022-11-30T01:50:00;35.10;;;16.73;;
572;SDS011;271;51.114;13.780;2022-11-30T01:52:31;34.63;;;16.05;;
572;SDS011;271;51.114;13.780;2022-11-30T01:55:05;34.50;;;16.63;;
572;SDS011;271;51.114;13.780;2022-11-30T01:57:39;36.80;;;17.38;;
572;SDS011;271;51.114;13.780;2022-11-30T02:00:09;33.25;;;15.35;;
572;SDS011;271;51.114;13.780;2022-11-30T02:02:40;33.55;;;16.20;;
572;SDS011;271;51.114;13.780;2022-11-30T02:05:14;37.35;;;15.57;;
572;SDS011;271;51.114;13.780;2022-11-30T02:07:43;34.17;;;15.68;;
572;SDS011;271;51.114;13.780;2022-11-30T02:10:12;34.95;;;17.30;;
572;SDS011;271;51.114;13.780;2022-11-30T02:12:45;34.88;;;16.35;;
572;SDS011;271;51.114;13.780;2022-11-30T02:15:34;34.13;;;15.48;;
572;SDS011;271;51.114;13.780;2022-11-30T02:18:10;38.25;;;17.40;;
572;SDS011;271;51.114;13.780;2022-11-30T02:20:44;36.42;;;16.33;;
572;SDS011;271;51.114;13.780;2022-11-30T02:23:28;34.33;;;16.40;;
572;SDS011;271;51.114;13.780;2022-11-30T02:26:27;35.15;;;15.57;;
572;SDS011;271;51.114;13.780;2022-11-30T02:29:28;36.13;;;16.50;;
572;SDS011;271;51.114;13.780;2022-11-30T02:32:01;34.38;;;16.35;;
572;SDS011;271;51.114;13.780;2022-11-30T02:34:34;34.55;;;16.02;;
572;SDS011;271;51.114;13.780;2022-11-30T02:37:03;33.92;;;16.30;;
572;SDS011;271;51.114;13.780;2022-11-30T02:39:33;36.97;;;17.65;;
572;SDS011;271;51.114;13.780;2022-11-30T02:42:01;34.20;;;16.15;;
572;SDS011;271;51.114;13.780;2022-11-30T02:44:30;33.70;;;16.33;;
572;SDS011;271;51.114;13.780;2022-11-30T02:47:06;36.47;;;17.35;;
572;SDS011;271;51.114;13.780;2022-11-30T02:49:42;36.25;;;16.63;;
572;SDS011;271;51.114;13.780;2022-11-30T02:52:15;37.78;;;19.08;;
572;SDS011;271;51.114;13.780;2022-11-30T02:54:45;34.90;;;17.40;;
572;SDS011;271;51.114;13.780;2022-11-30T02:57:12;36.97;;;18.08;;
572;SDS011;271;51.114;13.780;2022-11-30T02:59:41;35.25;;;17.77;;
572;SDS011;271;51.114;13.780;2022-11-30T03:02:09;36.88;;;18.33;;
572;SDS011;271;51.114;13.780;2022-11-30T03:04:36;34.92;;;16.25;;
572;SDS011;271;51.114;13.780;2022-11-30T03:07:03;36.95;;;16.27;;
572;SDS011;271;51.114;13.780;2022-11-30T03:09:31;34.88;;;16.50;;
572;SDS011;271;51.114;13.780;2022-11-30T03:11:58;32.83;;;16.15;;
572;SDS011;271;51.114;13.780;2022-11-30T03:14:26;33.35;;;16.40;;
572;SDS011;271;51.114;13.780;2022-11-30T03:16:54;32.40;;;16.00;;
572;SDS011;271;51.114;13.780;2022-11-30T03:19:22;33.90;;;16.73;;
572;SDS011;271;51.114;13.780;2022-11-30T03:21:49;34.42;;;16.42;;
572;SDS011;271;51.114;13.780;2022-11-30T03:24:17;34.45;;;16.55;;
572;SDS011;271;51.114;13.780;2022-11-30T03:26:44;34.92;;;18.15;;
572;SDS011;271;51.114;13.780;2022-11-30T03:29:12;35.47;;;16.63;;
572;SDS011;271;51.114;13.780;2022-11-30T03:31:41;38.10;;;16.40;;
572;SDS011;271;51.114;13.780;2022-11-30T03:34:10;34.15;;;16.05;;
572;SDS011;271;51.114;13.780;2022-11-30T03:36:37;35.47;;;17.40;;
572;SDS011;271;51.114;13.780;2022-11-30T03:39:05;35.15;;;16.67;;
572;SDS011;271;51.114;13.780;2022-11-30T03:41:32;40.33;;;18.73;;
572;SDS011;271;51.114;13.780;2022-11-30T03:44:00;38.65;;;17.92;;
572;SDS011;271;51.114;13.780;2022-11-30T03:46:27;37.15;;;16.75;;
572;SDS011;271;51.114;13.780;2022-11-30T03:48:54;31.98;;;15.80;;
572;SDS011;271;51.114;13.780;2022-11-30T03:51:23;36.42;;;17.20;;
572;SDS011;271;51.114;13.780;2022-11-30T03:53:51;37.72;;;17.98;;
572;SDS011;271;51.114;13.780;2022-11-30T03:56:18;35.20;;;16.65;;
572;SDS011;271;51.114;13.780;2022-11-30T03:58:46;34.47;;;17.33;;
572;SDS011;271;51.114;13.780;2022-11-30T04:01:14;34.25;;;17.58;;
572;SDS011;271;51.114;13.780;2022-11-30T04:03:43;38.53;;;18.30;;
572;SDS011;271;51.114;13.780;2022-11-30T04:06:11;36.55;;;18.77;;
572;SDS011;271;51.114;13.780;2022-11-30T04:08:40;35.08;;;16.63;;
572;SDS011;271;51.114;13.780;2022-11-30T04:11:08;36.65;;;17.58;;
572;SDS011;271;51.114;13.780;2022-11-30T04:13:37;35.50;;;17.35;;
572;SDS011;271;51.114;13.780;2022-11-30T04:16:06;40.40;;;17.70;;
572;SDS011;271;51.114;13.780;2022-11-30T04:18:35;39.13;;;17.75;;
572;SDS011;271;51.114;13.780;2022-11-30T04:21:03;38.10;;;19.00;;
572;SDS011;271;51.114;13.780;2022-11-30T04:23:32;39.42;;;18.85;;
572;SDS011;271;51.114;13.780;2022-11-30T04:26:02;34.38;;;16.75;;
572;SDS011;271;51.114;13.780;2022-11-30T04:28:31;36.65;;;16.30;;
572;SDS011;271;51.114;13.780;2022-11-30T04:30:58;35.25;;;16.30;;
572;SDS011;271;51.114;13.780;2022-11-30T04:33:27;42.17;;;19.20;;
572;SDS011;271;51.114;13.780;2022-11-30T04:35:55;37.78;;;18.75;;
572;SDS011;271;51.114;13.780;2022-11-30T04:38:24;39.17;;;17.98;;
572;SDS011;271;51.114;13.780;2022-11-30T04:40:51;39.78;;;19.42;;
572;SDS011;271;51.114;13.780;2022-11-30T04:43:21;41.65;;;19.58;;
572;SDS011;271;51.114;13.780;2022-11-30T04:45:49;39.67;;;19.42;;
572;SDS011;271;51.114;13.780;2022-11-30T04:48:17;41.17;;;18.50;;
572;SDS011;271;51.114;13.780;2022-11-30T04:50:45;40.00;;;19.67;;
572;SDS011;271;51.114;13.780;2022-11-30T04:53:12;40.15;;;20.17;;
572;SDS011;271;51.114;13.780;2022-11-30T04:55:40;41.92;;;19.83;;
572;SDS011;271;51.114;13.780;2022-11-30T04:58:07;35.88;;;16.75;;
572;SDS011;271;51.114;13.780;2022-11-30T05:00:36;40.38;;;19.42;;
572;SDS011;271;51.114;13.780;2022-11-30T05:03:03;37.33;;;17.85;;
572;SDS011;271;51.114;13.780;2022-11-30T05:05:31;39.55;;;18.30;;
572;SDS011;271;51.114;13.780;2022-11-30T05:07:58;40.28;;;19.90;;
572;SDS011;271;51.114;13.780;2022-11-30T05:10:26;40.40;;;20.98;;
572;SDS011;271;51.114;13.780;2022-11-30T05:12:54;38.90;;;19.65;;
572;SDS011;271;51.114;13.780;2022-11-30T05:15:22;37.35;;;18.15;;
572;SDS011;271;51.114;13.780;2022-11-30T05:17:51;38.40;;;19.25;;
572;SDS011;271;51.114;13.780;2022-11-30T05:20:19;40.63;;;19.77;;
572;SDS011;271;51.114;13.780;2022-11-30T05:22:47;40.45;;;18.48;;
572;SDS011;271;51.114;13.780;2022-11-30T05:25:14;38.78;;;18.80;;
572;SDS011;271;51.114;13.780;2022-11-30T05:27:42;38.97;;;18.65;;
572;SDS011;271;51.114;13.780;2022-11-30T05:30:10;41.42;;;18.60;;
572;SDS011;271;51.114;13.780;2022-11-30T05:32:39;42.38;;;19.83;;
572;SDS011;271;51.114;13.780;2022-11-30T05:35:08;39.67;;;18.85;;
572;SDS011;271;51.114;13.780;2022-11-30T05:37:37;40.58;;;19.75;;
572;SDS011;271;51.114;13.780;2022-11-30T05:40:05;37.80;;;17.90;;
572;SDS011;271;51.114;13.780;2022-11-30T05:42:33;39.60;;;16.75;;
572;SDS011;271;51.114;13.780;2022-11-30T05:45:00;35.35;;;17.33;;
572;SDS011;271;51.114;13.780;2022-11-30T05:47:27;37.95;;;18.35;;
572;SDS011;271;51.114;13.780;2022-11-30T05:49:55;40.20;;;17.83;;
572;SDS011;271;51.114;13.780;2022-11-30T05:52:23;39.20;;;18.67;;
572;SDS011;271;51.114;13.780;2022-11-30T05:54:51;36.97;;;18.60;;
572;SDS011;271;51.114;13.780;2022-11-30T05:57:18;36.53;;;18.13;;
572;SDS011;271;51.114;13.780;2022-11-30T05:59:46;36.15;;;17.02;;
572;SDS011;271;51.114;13.780;2022-11-30T06:02:13;38.88;;;18.17;;
572;SDS011;271;51.114;13.780;2022-11-30T06:04:40;35.13;;;17.20;;
572;SDS011;271;51.114;13.780;2022-11-30T06:07:08;38.42;;;17.60;;
572;SDS011;271;51.114;13.780;2022-11-30T06:09:37;37.40;;;17.55;;
572;SDS011;271;51.114;13.780;2022-11-30T06:12:05;35.95;;;17.48;;
572;SDS011;271;51.114;13.780;2022-11-30T06:14:33;37.55;;;17.73;;
572;SDS011;271;51.114;13.780;2022-11-30T06:17:01;36.53;;;17.08;;
572;SDS011;271;51.114;13.780;2022-11-30T06:19:28;37.83;;;17.92;;
572;SDS011;271;51.114;13.780;2022-11-30T06:21:56;36.35;;;16.45;;
572;SDS011;271;51.114;13.780;2022-11-30T06:24:23;34.63;;;17.40;;
572;SDS011;271;51.114;13.780;2022-11-30T06:26:52;35.00;;;15.85;;
572;SDS011;271;51.114;13.780;2022-11-30T06:29:19;35.75;;;17.52;;
572;SDS011;271;51.114;13.780;2022-11-30T06:31:47;40.05;;;17.35;;
572;SDS011;271;51.114;13.780;2022-11-30T06:34:14;37.40;;;17.35;;
572;SDS011;271;51.114;13.780;2022-11-30T06:36:42;36.35;;;17.13;;
572;SDS011;271;51.114;13.780;2022-11-30T06:39:09;37.00;;;17.15;;
572;SDS011;271;51.114;13.780;2022-11-30T06:41:38;37.22;;;18.30;;
572;SDS011;271;51.114;13.780;2022-11-30T06:44:07;34.78;;;17.05;;
572;SDS011;271;51.114;13.780;2022-11-30T06:46:35;38.13;;;17.35;;
572;SDS011;271;51.114;13.780;2022-11-30T06:49:03;36.15;;;16.15;;
572;SDS011;271;51.114;13.780;2022-11-30T06:51:35;35.30;;;15.68;;
572;SDS011;271;51.114;13.780;2022-11-30T06:54:07;33.95;;;15.30;;
572;SDS011;271;51.114;13.780;2022-11-30T06:56:34;34.38;;;16.88;;
572;SDS011;271;51.114;13.780;2022-11-30T06:59:02;36.55;;;17.65;;
572;SDS011;271;51.114;13.780;2022-11-30T07:01:31;34.03;;;16.98;;
572;SDS011;271;51.114;13.780;2022-11-30T07:03:58;37.30;;;17.38;;
572;SDS011;271;51.114;13.780;2022-11-30T07:06:25;36.28;;;16.40;;
572;SDS011;271;51.114;13.780;2022-11-30T07:08:53;36.75;;;16.67;;
572;SDS011;271;51.114;13.780;2022-11-30T07:11:20;33.38;;;16.20;;
572;SDS011;271;51.114;13.780;2022-11-30T07:13:48;35.20;;;15.15;;
572;SDS011;271;51.114;13.780;2022-11-30T07:16:15;37.25;;;16.50;;
572;SDS011;271;51.114;13.780;2022-11-30T07:18:44;33.20;;;15.45;;
572;SDS011;271;51.114;13.780;2022-11-30T07:21:12;33.40;;;14.25;;
572;SDS011;271;51.114;13.780;2022-11-30T07:23:39;36.08;;;16.60;;
572;SDS011;271;51.114;13.780;2022-11-30T07:26:24;34.35;;;15.43;;
572;SDS011;271;51.114;13.780;2022-11-30T07:28:52;34.30;;;16.20;;
572;SDS011;271;51.114;13.780;2022-11-30T07:31:23;39.15;;;17.35;;
572;SDS011;271;51.114;13.780;2022-11-30T07:33:53;35.33;;;16.55;;
572;SDS011;271;51.114;13.780;2022-11-30T07:36:22;34.97;;;15.57;;
572;SDS011;271;51.114;13.780;2022-11-30T07:38:51;35.55;;;16.33;;
572;SDS011;271;51.114;13.780;2022-11-30T07:41:18;36.58;;;16.02;;
572;SDS011;271;51.114;13.780;2022-11-30T07:43:46;38.63;;;16.85;;
572;SDS011;271;51.114;13.780;2022-11-30T07:46:14;36.35;;;16.30;;
572;SDS011;271;51.114;13.780;2022-11-30T07:48:42;35.65;;;15.77;;
572;SDS011;271;51.114;13.780;2022-11-30T07:51:12;36.40;;;15.63;;
572;SDS011;271;51.114;13.780;2022-11-30T07:53:40;31.80;;;13.93;;
572;SDS011;271;51.114;13.780;2022-11-30T07:56:08;37.15;;;16.02;;
572;SDS011;271;51.114;13.780;2022-11-30T07:58:38;33.40;;;14.55;;
572;SDS011;271;51.114;13.780;2022-11-30T08:01:07;36.83;;;16.73;;
572;SDS011;271;51.114;13.780;2022-11-30T08:03:35;38.55;;;16.67;;
572;SDS011;271;51.114;13.780;2022-11-30T08:06:04;37.08;;;16.90;;
572;SDS011;271;51.114;13.780;2022-11-30T08:08:34;37.75;;;15.65;;
572;SDS011;271;51.114;13.780;2022-11-30T08:11:03;35.15;;;15.05;;
572;SDS011;271;51.114;13.780;2022-11-30T08:13:32;36.45;;;15.32;;
572;SDS011;271;51.114;13.780;2022-11-30T08:16:00;38.05;;;15.45;;
572;SDS011;271;51.114;13.780;2022-11-30T08:18:28;36.38;;;16.67;;
572;SDS011;271;51.114;13.780;2022-11-30T08:20:56;32.97;;;14.25;;
572;SDS011;271;51.114;13.780;2022-11-30T08:23:24;36.97;;;15.85;;
572;SDS011;271;51.114;13.780;2022-11-30T08:25:55;34.35;;;14.55;;
572;SDS011;271;51.114;13.780;2022-11-30T08:28:22;33.80;;;15.75;;
572;SDS011;271;51.114;13.780;2022-11-30T08:30:50;32.35;;;15.23;;
572;SDS011;271;51.114;13.780;2022-11-30T08:33:17;33.53;;;16.33;;
572;SDS011;271;51.114;13.780;2022-11-30T08:35:45;33.15;;;15.45;;
572;SDS011;271;51.114;13.780;2022-11-30T08:38:12;33.58;;;15.73;;
572;SDS011;271;51.114;13.780;2022-11-30T08:40:39;31.52;;;13.65;;
572;SDS011;271;51.114;13.780;2022-11-30T08:43:08;34.95;;;15.45;;
572;SDS011;271;51.114;13.780;2022-11-30T08:45:36;33.67;;;13.80;;
572;SDS011;271;51.114;13.780;2022-11-30T08:48:04;32.60;;;15.60;;
572;SDS011;271;51.114;13.780;2022-11-30T08:50:31;33.13;;;12.80;;
572;SDS011;271;51.114;13.780;2022-11-30T08:52:59;32.15;;;13.50;;
572;SDS011;271;51.114;13.780;2022-11-30T08:55:26;32.45;;;13.13;;
572;SDS011;271;51.114;13.780;2022-11-30T08:57:53;32.58;;;14.98;;
572;SDS011;271;51.114;13.780;2022-11-30T09:00:22;31.60;;;13.82;;
572;SDS011;271;51.114;13.780;2022-11-30T09:02:53;30.83;;;14.23;;
572;SDS011;271;51.114;13.780;2022-11-30T09:05:20;30.52;;;12.70;;
572;SDS011;271;51.114;13.780;2022-11-30T09:07:48;29.75;;;14.25;;
572;SDS011;271;51.114;13.780;2022-11-30T09:10:16;29.92;;;13.75;;
572;SDS011;271;51.114;13.780;2022-11-30T09:12:43;32.03;;;14.38;;
572;SDS011;271;51.114;13.780;2022-11-30T09:15:11;32.22;;;13.60;;
572;SDS011;271;51.114;13.780;2022-11-30T09:17:40;36.00;;;14.77;;
572;SDS011;271;51.114;13.780;2022-11-30T09:20:07;33.17;;;14.15;;
572;SDS011;271;51.114;13.780;2022-11-30T09:22:35;30.52;;;14.02;;
572;SDS011;271;51.114;13.780;2022-11-30T09:25:03;32.92;;;14.75;;
572;SDS011;271;51.114;13.780;2022-11-30T09:27:31;29.90;;;13.60;;
572;SDS011;271;51.114;13.780;2022-11-30T09:29:58;31.83;;;15.30;;
572;SDS011;271;51.114;13.780;2022-11-30T09:32:26;33.85;;;14.70;;
572;SDS011;271;51.114;13.780;2022-11-30T09:34:56;33.60;;;13.93;;
572;SDS011;271;51.114;13.780;2022-11-30T09:37:23;28.98;;;13.02;;
572;SDS011;271;51.114;13.780;2022-11-30T09:39:50;31.77;;;14.88;;
572;SDS011;271;51.114;13.780;2022-11-30T09:42:23;30.85;;;12.57;;
572;SDS011;271;51.114;13.780;2022-11-30T09:44:59;30.55;;;14.55;;
572;SDS011;271;51.114;13.780;2022-11-30T09:50:36;28.85;;;12.73;;
572;SDS011;271;51.114;13.780;2022-11-30T09:53:09;30.92;;;13.02;;
572;SDS011;271;51.114;13.780;2022-11-30T09:55:41;31.15;;;14.32;;
572;SDS011;271;51.114;13.780;2022-11-30T09:58:11;29.77;;;13.90;;
572;SDS011;271;51.114;13.780;2022-11-30T10:00:48;30.52;;;14.13;;
572;SDS011;271;51.114;13.780;2022-11-30T10:03:15;31.38;;;14.65;;
572;SDS011;271;51.114;13.780;2022-11-30T10:05:48;29.45;;;14.02;;
572;SDS011;271;51.114;13.780;2022-11-30T10:08:27;32.33;;;15.10;;
572;SDS011;271;51.114;13.780;2022-11-30T10:11:09;31.50;;;13.75;;
572;SDS011;271;51.114;13.780;2022-11-30T10:13:50;30.33;;;14.27;;
572;SDS011;271;51.114;13.780;2022-11-30T10:16:30;32.13;;;15.38;;
572;SDS011;271;51.114;13.780;2022-11-30T10:19:06;31.98;;;15.38;;
572;SDS011;271;51.114;13.780;2022-11-30T10:21:49;34.10;;;15.02;;
572;SDS011;271;51.114;13.780;2022-11-30T10:24:34;33.38;;;15.73;;
572;SDS011;271;51.114;13.780;2022-11-30T10:27:16;32.60;;;15.23;;
572;SDS011;271;51.114;13.780;2022-11-30T10:29:44;31.23;;;14.23;;
572;SDS011;271;51.114;13.780;2022-11-30T10:32:13;35.17;;;15.20;;
572;SDS011;271;51.114;13.780;2022-11-30T10:34:45;32.92;;;15.23;;
572;SDS011;271;51.114;13.780;2022-11-30T10:37:20;31.88;;;14.48;;
572;SDS011;271;51.114;13.780;2022-11-30T10:39:56;33.20;;;14.45;;
572;SDS011;271;51.114;13.780;2022-11-30T10:42:28;31.15;;;14.43;;
572;SDS011;271;51.114;13.780;2022-11-30T10:45:00;32.47;;;13.70;;
572;SDS011;271;51.114;13.780;2022-11-30T10:47:32;31.75;;;14.85;;
572;SDS011;271;51.114;13.780;2022-11-30T10:50:02;30.42;;;14.25;;
572;SDS011;271;51.114;13.780;2022-11-30T10:52:34;33.72;;;14.02;;
572;SDS011;271;51.114;13.780;2022-11-30T10:55:11;29.88;;;14.18;;
572;SDS011;271;51.114;13.780;2022-11-30T10:57:40;30.25;;;13.40;;
572;SDS011;271;51.114;13.780;2022-11-30T11:00:11;29.65;;;12.88;;
572;SDS011;271;51.114;13.780;2022-11-30T11:02:41;31.90;;;14.20;;
572;SDS011;271;51.114;13.780;2022-11-30T11:05:15;32.42;;;13.82;;
572;SDS011;271;51.114;13.780;2022-11-30T11:07:48;29.55;;;13.65;;
572;SDS011;271;51.114;13.780;2022-11-30T11:10:23;30.05;;;12.63;;
572;SDS011;271;51.114;13.780;2022-11-30T11:12:55;27.98;;;13.50;;
572;SDS011;271;51.114;13.780;2022-11-30T11:15:23;29.00;;;12.35;;
572;SDS011;271;51.114;13.780;2022-11-30T11:17:52;29.63;;;13.48;;
572;SDS011;271;51.114;13.780;2022-11-30T11:20:27;29.27;;;13.40;;
572;SDS011;271;51.114;13.780;2022-11-30T11:22:58;30.77;;;14.38;;
572;SDS011;271;51.114;13.780;2022-11-30T11:25:27;33.08;;;15.32;;
572;SDS011;271;51.114;13.780;2022-11-30T11:28:01;30.02;;;14.13;;
572;SDS011;271;51.114;13.780;2022-11-30T11:30:33;32.17;;;14.02;;
572;SDS011;271;51.114;13.780;2022-11-30T11:33:20;32.15;;;14.25;;
572;SDS011;271;51.114;13.780;2022-11-30T11:35:49;31.88;;;15.68;;
572;SDS011;271;51.114;13.780;2022-11-30T11:38:20;31.77;;;14.27;;
572;SDS011;271;51.114;13.780;2022-11-30T11:40:53;33.03;;;15.00;;
572;SDS011;271;51.114;13.780;2022-11-30T11:43:26;29.17;;;13.50;;
572;SDS011;271;51.114;13.780;2022-11-30T11:45:56;31.23;;;13.43;;
572;SDS011;271;51.114;13.780;2022-11-30T11:48:30;29.40;;;14.10;;
572;SDS011;271;51.114;13.780;2022-11-30T11:51:01;31.67;;;14.27;;
572;SDS011;271;51.114;13.780;2022-11-30T11:53:38;34.47;;;16.08;;
572;SDS011;271;51.114;13.780;2022-11-30T11:56:14;29.45;;;13.70;;
572;SDS011;271;51.114;13.780;2022-11-30T11:58:48;30.65;;;13.70;;
572;SDS011;271;51.114;13.780;2022-11-30T12:01:20;32.40;;;14.00;;
572;SDS011;271;51.114;13.780;2022-11-30T12:04:05;31.42;;;13.95;;
572;SDS011;271;51.114;13.780;2022-11-30T12:06:41;36.13;;;15.15;;
572;SDS011;271;51.114;13.780;2022-11-30T12:09:13;30.00;;;13.85;;
572;SDS011;271;51.114;13.780;2022-11-30T12:11:44;30.92;;;13.82;;
572;SDS011;271;51.114;13.780;2022-11-30T12:14:13;34.60;;;14.98;;
572;SDS011;271;51.114;13.780;2022-11-30T12:16:47;31.17;;;13.35;;
572;SDS011;271;51.114;13.780;2022-11-30T12:19:32;30.67;;;13.88;;
572;SDS011;271;51.114;13.780;2022-11-30T12:22:08;31.75;;;13.75;;
572;SDS011;271;51.114;13.780;2022-11-30T12:24:57;33.70;;;15.13;;
572;SDS011;271;51.114;13.780;2022-11-30T12:27:42;33.15;;;14.82;;
572;SDS011;271;51.114;13.780;2022-11-30T12:30:17;31.15;;;13.52;;
572;SDS011;271;51.114;13.780;2022-11-30T12:33:00;32.55;;;15.43;;
572;SDS011;271;51.114;13.780;2022-11-30T12:35:35;33.65;;;14.48;;
572;SDS011;271;51.114;13.780;2022-11-30T12:38:16;32.55;;;15.30;;
572;SDS011;271;51.114;13.780;2022-11-30T12:40:53;30.58;;;14.48;;
572;SDS011;271;51.114;13.780;2022-11-30T12:43:28;32.20;;;15.70;;
572;SDS011;271;51.114;13.780;2022-11-30T12:46:05;32.33;;;13.82;;
572;SDS011;271;51.114;13.780;2022-11-30T12:48:42;33.55;;;15.40;;
572;SDS011;271;51.114;13.780;2022-11-30T12:51:20;31.67;;;13.48;;
572;SDS011;271;51.114;13.780;2022-11-30T12:53:57;33.92;;;15.90;;
572;SDS011;271;51.114;13.780;2022-11-30T12:56:33;32.33;;;14.77;;
572;SDS011;271;51.114;13.780;2022-11-30T12:59:12;30.75;;;13.65;;
572;SDS011;271;51.114;13.780;2022-11-30T13:01:51;32.50;;;15.20;;
572;SDS011;271;51.114;13.780;2022-11-30T13:04:39;35.65;;;15.23;;
572;SDS011;271;51.114;13.780;2022-11-30T13:07:21;28.40;;;12.75;;
572;SDS011;271;51.114;13.780;2022-11-30T13:09:54;32.85;;;14.85;;
572;SDS011;271;51.114;13.780;2022-11-30T13:12:26;30.13;;;13.80;;
572;SDS011;271;51.114;13.780;2022-11-30T13:15:01;28.80;;;12.95;;
572;SDS011;271;51.114;13.780;2022-11-30T13:17:31;33.78;;;14.25;;
572;SDS011;271;51.114;13.780;2022-11-30T13:19:59;30.10;;;14.18;;
572;SDS011;271;51.114;13.780;2022-11-30T13:22:37;32.08;;;13.65;;
572;SDS011;271;51.114;13.780;2022-11-30T13:25:16;32.90;;;14.85;;
572;SDS011;271;51.114;13.780;2022-11-30T13:27:52;30.73;;;13.40;;
572;SDS011;271;51.114;13.780;2022-11-30T13:30:30;35.60;;;15.90;;
572;SDS011;271;51.114;13.780;2022-11-30T13:36:03;32.22;;;12.95;;
572;SDS011;271;51.114;13.780;2022-11-30T13:38:31;34.60;;;15.45;;
572;SDS011;271;51.114;13.780;2022-11-30T13:40:59;30.27;;;12.90;;
572;SDS011;271;51.114;13.780;2022-11-30T13:43:30;29.25;;;11.90;;
572;SDS011;271;51.114;13.780;2022-11-30T13:46:02;30.23;;;11.95;;
572;SDS011;271;51.114;13.780;2022-11-30T13:48:36;28.73;;;13.23;;
572;SDS011;271;51.114;13.780;2022-11-30T13:51:05;27.48;;;11.10;;
572;SDS011;271;51.114;13.780;2022-11-30T13:53:33;29.05;;;11.40;;
572;SDS011;271;51.114;13.780;2022-11-30T13:56:04;28.65;;;12.07;;
572;SDS011;271;51.114;13.780;2022-11-30T13:58:34;27.80;;;11.60;;
572;SDS011;271;51.114;13.780;2022-11-30T14:01:23;26.35;;;11.23;;
572;SDS011;271;51.114;13.780;2022-11-30T14:07:03;27.83;;;12.07;;
572;SDS011;271;51.114;13.780;2022-11-30T14:09:59;29.25;;;12.30;;
572;SDS011;271;51.114;13.780;2022-11-30T14:12:42;28.38;;;11.65;;
572;SDS011;271;51.114;13.780;2022-11-30T14:15:27;28.80;;;11.68;;
572;SDS011;271;51.114;13.780;2022-11-30T14:18:19;28.52;;;11.93;;
572;SDS011;271;51.114;13.780;2022-11-30T14:20:50;29.92;;;13.35;;
572;SDS011;271;51.114;13.780;2022-11-30T14:23:23;28.25;;;12.02;;
572;SDS011;271;51.114;13.780;2022-11-30T14:25:55;26.00;;;11.88;;
572;SDS011;271;51.114;13.780;2022-11-30T14:28:34;29.35;;;12.20;;
572;SDS011;271;51.114;13.780;2022-11-30T14:31:07;28.13;;;11.65;;
572;SDS011;271;51.114;13.780;2022-11-30T14:33:42;27.05;;;11.20;;
572;SDS011;271;51.114;13.780;2022-11-30T14:36:14;29.48;;;12.50;;
572;SDS011;271;51.114;13.780;2022-11-30T14:38:42;26.60;;;11.55;;
572;SDS011;271;51.114;13.780;2022-11-30T14:41:19;28.05;;;11.60;;
572;SDS011;271;51.114;13.780;2022-11-30T14:44:01;28.60;;;11.93;;
572;SDS011;271;51.114;13.780;2022-11-30T14:46:32;27.38;;;11.18;;
572;SDS011;271;51.114;13.780;2022-11-30T14:49:04;29.92;;;12.32;;
572;SDS011;271;51.114;13.780;2022-11-30T14:51:35;28.30;;;12.60;;
572;SDS011;271;51.114;13.780;2022-11-30T14:54:04;29.10;;;12.65;;
572;SDS011;271;51.114;13.780;2022-11-30T14:56:42;28.85;;;11.77;;
572;SDS011;271;51.114;13.780;2022-11-30T14:59:30;28.50;;;12.02;;
572;SDS011;271;51.114;13.780;2022-11-30T15:02:10;31.67;;;13.35;;
572;SDS011;271;51.114;13.780;2022-11-30T15:04:45;37.63;;;16.77;;
572;SDS011;271;51.114;13.780;2022-11-30T15:07:14;38.75;;;17.83;;
572;SDS011;271;51.114;13.780;2022-11-30T15:09:43;36.47;;;15.63;;
572;SDS011;271;51.114;13.780;2022-11-30T15:12:16;33.30;;;15.52;;
572;SDS011;271;51.114;13.780;2022-11-30T15:17:52;31.70;;;16.42;;
572;SDS011;271;51.114;13.780;2022-11-30T15:20:23;33.28;;;16.13;;
572;SDS011;271;51.114;13.780;2022-11-30T15:22:57;36.75;;;21.63;;
572;SDS011;271;51.114;13.780;2022-11-30T15:25:28;38.88;;;19.58;;
572;SDS011;271;51.114;13.780;2022-11-30T15:28:01;37.80;;;19.55;;
572;SDS011;271;51.114;13.780;2022-11-30T15:30:32;30.45;;;14.05;;
572;SDS011;271;51.114;13.780;2022-11-30T15:33:10;30.45;;;14.15;;
572;SDS011;271;51.114;13.780;2022-11-30T15:35:44;29.75;;;14.68;;